Time;durP1;ratioP1;P1;durP2;ratioP2;P2;SDS_P1;SDS_P2;PMS_P1;PMS_P2;Temp;Humidity;BMP_temperature;BMP_pressure;BME280_temperature;BME280_humidity;BME280_pressure;Samples;Min_cycle;Max_cycle;Signal;HPM_P1;HPM_P2
2023/07/19 00:02:15;;;;;;;3.33;2.20;;;;;;;;;;5022120;28;20243;-79
2023/07/19 00:04:41;;;;;;;3.42;2.53;;;;;;;;;;5030292;28;20227;-81
2023/07/19 00:07:06;;;;;;;2.92;2.40;;;;;;;;;;5036935;28;20465;-77
2023/07/19 00:09:32;;;;;;;3.13;2.50;;;;;;;;;;5026704;28;20285;-80
2023/07/19 00:11:57;;;;;;;3.40;2.65;;;;;;;;;;5032260;28;20751;-81
2023/07/19 00:14:23;;;;;;;4.38;2.80;;;;;;;;;;5043222;28;20224;-79
2023/07/19 00:16:51;;;;;;;2.88;2.63;;;;;;;;;;5031729;28;20713;-80
2023/07/19 00:19:16;;;;;;;4.50;2.40;;;;;;;;;;5028860;28;20282;-79
2023/07/19 00:21:42;;;;;;;3.45;2.47;;;;;;;;;;5034675;28;20219;-79
2023/07/19 00:24:07;;;;;;;3.08;2.47;;;;;;;;;;5027512;28;20308;-79
2023/07/19 00:26:33;;;;;;;3.72;2.40;;;;;;;;;;5025671;28;20221;-79
2023/07/19 00:29:01;;;;;;;3.90;2.47;;;;;;;;;;4995086;28;20219;-78
2023/07/19 00:31:29;;;;;;;4.65;2.25;;;;;;;;;;5033468;28;20693;-80
2023/07/19 00:33:55;;;;;;;2.70;2.30;;;;;;;;;;5016757;28;20535;-79
2023/07/19 00:36:20;;;;;;;4.65;2.33;;;;;;;;;;5010742;28;20284;-81
2023/07/19 00:38:46;;;;;;;2.95;2.20;;;;;;;;;;5031072;28;20220;-78
2023/07/19 00:41:12;;;;;;;4.07;2.40;;;;;;;;;;5045636;28;20224;-79
2023/07/19 00:43:38;;;;;;;2.80;2.30;;;;;;;;;;5039668;28;20692;-80
2023/07/19 00:46:03;;;;;;;3.83;2.28;;;;;;;;;;4994101;28;20212;-79
2023/07/19 00:48:29;;;;;;;3.35;2.15;;;;;;;;;;5023289;28;20235;-79
2023/07/19 00:50:55;;;;;;;2.83;2.40;;;;;;;;;;5021739;28;20625;-78
2023/07/19 00:53:23;;;;;;;2.50;1.90;;;;;;;;;;5027337;28;20239;-80
2023/07/19 00:55:49;;;;;;;2.50;2.28;;;;;;;;;;5020853;28;21270;-81
2023/07/19 00:58:15;;;;;;;3.50;2.25;;;;;;;;;;5024859;28;20255;-80
2023/07/19 01:00:41;;;;;;;2.83;2.22;;;;;;;;;;5028014;28;20314;-79
2023/07/19 01:03:06;;;;;;;2.85;2.30;;;;;;;;;;5029348;28;20228;-79
2023/07/19 01:05:32;;;;;;;2.60;2.40;;;;;;;;;;4972040;28;20224;-80
2023/07/19 01:08:00;;;;;;;6.93;2.70;;;;;;;;;;5004716;28;20246;-80
2023/07/19 01:10:26;;;;;;;5.68;2.50;;;;;;;;;;4997480;28;20227;-80
2023/07/19 01:13:11;;;;;;;3.17;2.53;;;;;;;;;;5026590;28;20226;-80
2023/07/19 01:15:37;;;;;;;2.47;2.13;;;;;;;;;;5042057;28;20223;-82
2023/07/19 01:18:03;;;;;;;2.67;2.42;;;;;;;;;;5008948;28;20220;-81
2023/07/19 01:20:31;;;;;;;3.35;2.42;;;;;;;;;;5006562;28;20266;-82
2023/07/19 01:22:57;;;;;;;3.63;2.30;;;;;;;;;;5035791;28;20232;-81
2023/07/19 01:25:23;;;;;;;2.58;2.35;;;;;;;;;;5014406;28;20236;-78
2023/07/19 01:27:49;;;;;;;3.20;2.33;;;;;;;;;;4997387;28;21027;-81
2023/07/19 01:30:16;;;;;;;2.80;2.53;;;;;;;;;;5015669;28;20220;-80
2023/07/19 01:32:43;;;;;;;10.60;2.60;;;;;;;;;;5019600;28;20215;-79
2023/07/19 01:35:08;;;;;;;2.60;2.40;;;;;;;;;;5032366;28;20769;-80
2023/07/19 01:37:35;;;;;;;2.28;2.05;;;;;;;;;;5029693;28;20215;-80
2023/07/19 01:40:05;;;;;;;2.92;2.53;;;;;;;;;;4994129;28;20305;-80
2023/07/19 01:42:31;;;;;;;2.65;2.45;;;;;;;;;;4998519;28;20235;-80
2023/07/19 01:45:01;;;;;;;2.55;2.08;;;;;;;;;;5029975;28;20216;-80
2023/07/19 01:47:27;;;;;;;2.42;2.15;;;;;;;;;;5036735;28;20215;-80
2023/07/19 01:49:55;;;;;;;2.70;2.50;;;;;;;;;;5018840;28;20223;-78
2023/07/19 01:52:23;;;;;;;3.33;2.65;;;;;;;;;;5030465;28;20208;-81
2023/07/19 01:54:48;;;;;;;2.95;2.42;;;;;;;;;;5039957;28;20218;-80
2023/07/19 01:57:16;;;;;;;4.20;2.72;;;;;;;;;;5039952;28;20762;-80
2023/07/19 01:59:42;;;;;;;3.40;2.72;;;;;;;;;;5018991;28;20220;-80
2023/07/19 02:02:08;;;;;;;2.85;2.58;;;;;;;;;;5038889;28;20223;-81
2023/07/19 02:04:33;;;;;;;3.17;2.75;;;;;;;;;;5019741;28;20222;-81
2023/07/19 02:07:02;;;;;;;2.67;2.47;;;;;;;;;;5040559;28;20242;-82
2023/07/19 02:09:27;;;;;;;2.97;2.67;;;;;;;;;;5007803;28;21036;-82
2023/07/19 02:11:53;;;;;;;3.83;2.60;;;;;;;;;;5025666;28;20223;-83
2023/07/19 02:14:19;;;;;;;2.90;2.67;;;;;;;;;;5006163;28;20227;-81
2023/07/19 02:16:49;;;;;;;4.22;2.80;;;;;;;;;;5029745;28;20983;-81
2023/07/19 02:19:17;;;;;;;2.70;2.50;;;;;;;;;;5014741;28;20756;-80
2023/07/19 02:21:42;;;;;;;3.40;2.92;;;;;;;;;;5026811;28;20224;-79
2023/07/19 02:24:08;;;;;;;2.70;2.42;;;;;;;;;;5033789;28;20224;-81
2023/07/19 02:26:33;;;;;;;3.13;2.92;;;;;;;;;;5016949;28;20231;-79
2023/07/19 02:28:59;;;;;;;2.90;2.65;;;;;;;;;;5020433;28;20220;-81
2023/07/19 02:31:24;;;;;;;2.42;2.22;;;;;;;;;;5020729;28;20277;-79
2023/07/19 02:33:52;;;;;;;2.50;2.30;;;;;;;;;;5014804;28;21089;-83
2023/07/19 02:36:18;;;;;;;2.63;2.08;;;;;;;;;;5005937;28;20228;-79
2023/07/19 02:38:46;;;;;;;2.50;2.30;;;;;;;;;;5034274;28;20238;-80
2023/07/19 02:41:11;;;;;;;3.05;2.75;;;;;;;;;;5011685;28;20235;-82
2023/07/19 02:43:37;;;;;;;2.70;2.50;;;;;;;;;;5002220;28;20223;-81
2023/07/19 02:46:06;;;;;;;2.92;2.55;;;;;;;;;;4997647;28;20234;-79
2023/07/19 02:48:34;;;;;;;2.67;2.47;;;;;;;;;;5016564;28;20227;-79
2023/07/19 02:51:00;;;;;;;2.38;2.17;;;;;;;;;;5000594;28;20270;-80
2023/07/19 02:53:26;;;;;;;2.67;2.38;;;;;;;;;;5018928;28;20711;-79
2023/07/19 02:55:54;;;;;;;3.13;2.40;;;;;;;;;;5003952;28;20219;-82
2023/07/19 02:58:20;;;;;;;2.40;2.20;;;;;;;;;;5038255;28;20224;-82
2023/07/19 03:00:45;;;;;;;3.65;2.47;;;;;;;;;;5032453;28;20231;-82
2023/07/19 03:03:13;;;;;;;3.25;2.60;;;;;;;;;;5030577;28;20322;-81
2023/07/19 03:05:42;;;;;;;5.32;2.53;;;;;;;;;;5034859;28;20216;-81
2023/07/19 03:08:15;;;;;;;3.90;2.38;;;;;;;;;;5021946;28;20222;-81
2023/07/19 03:10:41;;;;;;;3.35;2.38;;;;;;;;;;5033331;28;20220;-80
2023/07/19 03:13:07;;;;;;;3.15;2.78;;;;;;;;;;5030405;28;20227;-80
2023/07/19 03:15:33;;;;;;;3.00;2.28;;;;;;;;;;5016826;28;20245;-80
2023/07/19 03:18:08;;;;;;;3.83;2.35;;;;;;;;;;5029310;28;20211;-81
2023/07/19 03:20:33;;;;;;;2.80;2.60;;;;;;;;;;4992128;28;20228;-80
2023/07/19 03:23:00;;;;;;;3.13;2.60;;;;;;;;;;5014443;28;20231;-80
2023/07/19 03:25:27;;;;;;;6.28;2.50;;;;;;;;;;5041886;28;20218;-80
2023/07/19 03:27:55;;;;;;;2.72;2.53;;;;;;;;;;5008032;28;20230;-78
2023/07/19 03:30:20;;;;;;;3.10;2.40;;;;;;;;;;5031735;28;20241;-80
2023/07/19 03:32:47;;;;;;;3.75;2.50;;;;;;;;;;5030259;28;20212;-79
2023/07/19 03:35:13;;;;;;;2.83;2.63;;;;;;;;;;5011828;28;20221;-79
2023/07/19 03:37:47;;;;;;;3.15;2.83;;;;;;;;;;5025536;28;20215;-79
2023/07/19 03:40:16;;;;;;;2.70;2.50;;;;;;;;;;5011937;28;20251;-78
2023/07/19 03:42:47;;;;;;;5.53;3.13;;;;;;;;;;5018537;28;20778;-81
2023/07/19 03:45:12;;;;;;;3.70;3.00;;;;;;;;;;5014933;28;20309;-80
2023/07/19 03:47:41;;;;;;;3.85;2.72;;;;;;;;;;5020315;28;20246;-79
2023/07/19 03:50:07;;;;;;;2.88;2.40;;;;;;;;;;5032018;28;20885;-79
2023/07/19 03:52:33;;;;;;;3.35;2.58;;;;;;;;;;5032009;28;20241;-78
2023/07/19 03:55:02;;;;;;;3.47;3.08;;;;;;;;;;5025915;28;20223;-79
2023/07/19 03:57:34;;;;;;;2.90;2.60;;;;;;;;;;5029772;28;20224;-77
2023/07/19 04:00:00;;;;;;;3.28;2.50;;;;;;;;;;5026182;28;20228;-79
2023/07/19 04:06:14;;;;;;;3.10;2.70;;;;;;;;;;5044351;28;20223;-79
2023/07/19 04:08:40;;;;;;;2.85;2.42;;;;;;;;;;5031660;28;20226;-80
2023/07/19 04:11:12;;;;;;;3.05;2.30;;;;;;;;;;5012947;28;20271;-79
2023/07/19 04:13:40;;;;;;;3.50;2.53;;;;;;;;;;5015688;28;20216;-78
2023/07/19 04:16:08;;;;;;;2.80;2.42;;;;;;;;;;5000691;28;20215;-80
2023/07/19 04:18:34;;;;;;;5.05;2.33;;;;;;;;;;5026661;28;20575;-79
2023/07/19 04:21:03;;;;;;;2.70;2.50;;;;;;;;;;5029335;28;20224;-80
2023/07/19 04:23:28;;;;;;;2.83;2.63;;;;;;;;;;5014966;28;20241;-80
2023/07/19 04:25:54;;;;;;;2.53;2.33;;;;;;;;;;5004628;28;20222;-81
2023/07/19 04:28:23;;;;;;;3.22;2.33;;;;;;;;;;5006419;28;20216;-80
2023/07/19 04:30:51;;;;;;;4.05;2.67;;;;;;;;;;5011128;28;20218;-79
2023/07/19 04:33:19;;;;;;;2.40;2.20;;;;;;;;;;5028388;28;20224;-82
2023/07/19 04:35:44;;;;;;;4.32;2.67;;;;;;;;;;5025828;28;20717;-81
2023/07/19 04:38:13;;;;;;;3.03;2.72;;;;;;;;;;5023524;28;20227;-83
2023/07/19 04:40:39;;;;;;;3.92;2.45;;;;;;;;;;5009585;28;20243;-81
2023/07/19 04:43:06;;;;;;;3.45;2.50;;;;;;;;;;5027913;28;20224;-82
2023/07/19 04:45:32;;;;;;;3.15;2.38;;;;;;;;;;5006566;28;20599;-80
2023/07/19 04:47:58;;;;;;;3.00;2.58;;;;;;;;;;5024526;28;20215;-80
2023/07/19 04:50:24;;;;;;;2.55;2.35;;;;;;;;;;5019307;28;20281;-82
2023/07/19 04:52:53;;;;;;;2.88;2.55;;;;;;;;;;5017751;28;20298;-81
2023/07/19 04:55:20;;;;;;;4.68;2.40;;;;;;;;;;5032885;28;20223;-82
2023/07/19 04:57:46;;;;;;;4.90;2.70;;;;;;;;;;4979257;28;20219;-81
2023/07/19 05:00:12;;;;;;;3.45;2.30;;;;;;;;;;5013442;28;20215;-82
2023/07/19 05:02:38;;;;;;;3.55;2.50;;;;;;;;;;5036364;28;20224;-82
2023/07/19 05:05:05;;;;;;;3.88;2.45;;;;;;;;;;5007124;28;20712;-80
2023/07/19 05:07:37;;;;;;;3.10;2.42;;;;;;;;;;5033698;28;20696;-81
2023/07/19 05:10:08;;;;;;;3.65;2.70;;;;;;;;;;5030310;28;20220;-83
2023/07/19 05:12:34;;;;;;;4.82;3.00;;;;;;;;;;5012562;28;20319;-82
2023/07/19 05:15:02;;;;;;;4.55;2.75;;;;;;;;;;5020826;28;20454;-82
2023/07/19 05:17:28;;;;;;;3.50;2.85;;;;;;;;;;5034700;28;20227;-80
2023/07/19 05:19:53;;;;;;;2.67;2.47;;;;;;;;;;5039729;28;20755;-81
2023/07/19 05:22:19;;;;;;;3.30;2.60;;;;;;;;;;5003662;28;20235;-81
2023/07/19 05:24:47;;;;;;;3.58;3.13;;;;;;;;;;5010650;28;20212;-80
2023/07/19 05:27:17;;;;;;;4.25;2.80;;;;;;;;;;5027031;28;20215;-81
2023/07/19 05:29:43;;;;;;;3.45;2.83;;;;;;;;;;5015207;28;20223;-79
2023/07/19 05:32:08;;;;;;;3.78;2.80;;;;;;;;;;5010387;28;20220;-79
2023/07/19 05:34:34;;;;;;;5.80;2.95;;;;;;;;;;5029503;28;20925;-79
2023/07/19 05:37:00;;;;;;;3.35;2.75;;;;;;;;;;5015853;28;20208;-80
2023/07/19 05:39:25;;;;;;;5.18;2.67;;;;;;;;;;5034107;28;20223;-78
2023/07/19 05:41:51;;;;;;;3.53;2.90;;;;;;;;;;5032781;28;20234;-81
2023/07/19 05:44:19;;;;;;;3.20;2.60;;;;;;;;;;5014533;28;20230;-81
2023/07/19 05:46:45;;;;;;;4.28;2.50;;;;;;;;;;5032988;28;20584;-80
2023/07/19 05:49:10;;;;;;;6.13;2.47;;;;;;;;;;5016957;28;20228;-80
2023/07/19 05:51:36;;;;;;;5.95;2.53;;;;;;;;;;5032937;28;20222;-82
2023/07/19 05:54:03;;;;;;;3.60;2.40;;;;;;;;;;5013540;28;20221;-80
2023/07/19 05:56:29;;;;;;;7.40;3.15;;;;;;;;;;5026262;28;20235;-79
2023/07/19 05:58:54;;;;;;;8.45;3.13;;;;;;;;;;5018065;28;20216;-79
2023/07/19 06:01:24;;;;;;;3.50;2.60;;;;;;;;;;5026471;28;20716;-81
2023/07/19 06:03:50;;;;;;;4.32;2.70;;;;;;;;;;5033902;28;20750;-78
2023/07/19 06:06:18;;;;;;;4.28;2.65;;;;;;;;;;5044260;28;20204;-80
2023/07/19 06:08:45;;;;;;;3.45;2.97;;;;;;;;;;5013518;28;20220;-82
2023/07/19 06:11:13;;;;;;;3.08;2.15;;;;;;;;;;5009332;28;20219;-80
2023/07/19 06:13:38;;;;;;;2.55;2.33;;;;;;;;;;5033124;28;20219;-80
2023/07/19 06:16:04;;;;;;;2.75;2.17;;;;;;;;;;5017845;28;20211;-79
2023/07/19 06:18:30;;;;;;;2.83;2.30;;;;;;;;;;5030225;28;20216;-79
2023/07/19 06:20:55;;;;;;;2.72;2.00;;;;;;;;;;5043961;28;20246;-79
2023/07/19 06:23:21;;;;;;;4.95;2.20;;;;;;;;;;5031397;28;20212;-80
2023/07/19 06:25:48;;;;;;;3.55;2.17;;;;;;;;;;5028679;28;20602;-80
2023/07/19 06:28:13;;;;;;;6.90;2.22;;;;;;;;;;5033621;28;20227;-80
2023/07/19 06:30:39;;;;;;;2.20;1.95;;;;;;;;;;5002061;28;20250;-80
2023/07/19 06:33:05;;;;;;;3.75;2.03;;;;;;;;;;4996441;28;20219;-80
2023/07/19 06:35:30;;;;;;;4.45;2.30;;;;;;;;;;5048809;28;20967;-80
2023/07/19 06:37:56;;;;;;;3.85;2.30;;;;;;;;;;5021377;28;20277;-80
2023/07/19 06:40:21;;;;;;;4.07;2.55;;;;;;;;;;5016355;28;20249;-80
2023/07/19 06:42:47;;;;;;;3.22;1.90;;;;;;;;;;5043884;28;20224;-81
2023/07/19 06:45:12;;;;;;;2.45;2.10;;;;;;;;;;5015859;28;20571;-79
2023/07/19 06:47:38;;;;;;;2.38;2.17;;;;;;;;;;5019428;28;20692;-77
2023/07/19 06:50:04;;;;;;;3.95;2.13;;;;;;;;;;5047551;28;20216;-80
2023/07/19 06:52:32;;;;;;;6.53;2.40;;;;;;;;;;5043183;28;20261;-80
2023/07/19 06:54:57;;;;;;;2.50;2.30;;;;;;;;;;5038272;28;20234;-79
2023/07/19 06:57:23;;;;;;;2.83;2.50;;;;;;;;;;5043317;28;20736;-79
2023/07/19 06:59:51;;;;;;;3.58;2.42;;;;;;;;;;5031462;28;20772;-80
2023/07/19 07:02:22;;;;;;;3.70;2.17;;;;;;;;;;5012730;28;20239;-80
2023/07/19 07:04:47;;;;;;;5.07;2.67;;;;;;;;;;5000639;28;20281;-79
2023/07/19 07:07:15;;;;;;;3.17;2.75;;;;;;;;;;5008176;28;20243;-80
2023/07/19 07:09:44;;;;;;;3.13;2.83;;;;;;;;;;5027628;28;20219;-80
2023/07/19 07:12:17;;;;;;;3.15;2.53;;;;;;;;;;5037562;28;20212;-77
2023/07/19 07:14:43;;;;;;;5.43;2.80;;;;;;;;;;5030679;28;20258;-79
2023/07/19 07:17:09;;;;;;;4.55;3.25;;;;;;;;;;5041701;28;20215;-80
2023/07/19 07:19:34;;;;;;;3.58;2.80;;;;;;;;;;5042015;28;20295;-79
2023/07/19 07:22:02;;;;;;;3.22;2.70;;;;;;;;;;5035625;28;20326;-80
2023/07/19 07:24:28;;;;;;;3.83;2.80;;;;;;;;;;5016256;28;20226;-78
2023/07/19 07:26:53;;;;;;;3.42;3.13;;;;;;;;;;5017454;28;20211;-79
2023/07/19 07:29:19;;;;;;;4.07;2.85;;;;;;;;;;5031161;28;20216;-78
2023/07/19 07:31:44;;;;;;;4.10;3.10;;;;;;;;;;5041841;28;20212;-79
2023/07/19 07:34:10;;;;;;;5.03;3.17;;;;;;;;;;5033504;28;20215;-83
2023/07/19 07:36:35;;;;;;;3.50;2.97;;;;;;;;;;5022916;28;20250;-82
2023/07/19 07:39:01;;;;;;;3.58;3.00;;;;;;;;;;5030040;28;20341;-80
2023/07/19 07:41:29;;;;;;;4.00;3.10;;;;;;;;;;5041992;28;20867;-80
2023/07/19 07:43:55;;;;;;;3.70;3.40;;;;;;;;;;5040468;28;20220;-81
2023/07/19 07:46:20;;;;;;;4.45;3.25;;;;;;;;;;5039881;28;20257;-78
2023/07/19 07:48:48;;;;;;;6.13;3.15;;;;;;;;;;5025333;28;20208;-80
2023/07/19 07:51:14;;;;;;;4.00;3.50;;;;;;;;;;5012426;28;20943;-80
2023/07/19 07:53:40;;;;;;;6.05;3.42;;;;;;;;;;5005207;28;20226;-79
2023/07/19 07:56:05;;;;;;;3.97;3.47;;;;;;;;;;5021984;28;20224;-79
2023/07/19 07:58:31;;;;;;;4.93;3.28;;;;;;;;;;5043513;28;20230;-78
2023/07/19 08:00:59;;;;;;;3.97;3.67;;;;;;;;;;4997825;28;20307;-79
2023/07/19 08:03:27;;;;;;;4.00;3.67;;;;;;;;;;5042284;28;20219;-79
2023/07/19 08:05:55;;;;;;;4.68;3.60;;;;;;;;;;5044424;28;20273;-79
2023/07/19 08:08:20;;;;;;;4.93;3.53;;;;;;;;;;5039392;28;20235;-79
2023/07/19 08:10:46;;;;;;;4.18;3.33;;;;;;;;;;5030090;28;20720;-80
2023/07/19 08:13:11;;;;;;;4.57;3.28;;;;;;;;;;5039704;28;20274;-80
2023/07/19 08:15:39;;;;;;;3.33;3.03;;;;;;;;;;5008282;28;20215;-80
2023/07/19 08:18:05;;;;;;;4.15;3.22;;;;;;;;;;5048413;28;20219;-79
2023/07/19 08:20:33;;;;;;;3.20;2.90;;;;;;;;;;5026006;28;20223;-81
2023/07/19 08:22:58;;;;;;;6.55;2.90;;;;;;;;;;5033281;28;21043;-79
2023/07/19 08:25:24;;;;;;;3.38;2.67;;;;;;;;;;5013999;28;20211;-78
2023/07/19 08:27:52;;;;;;;3.55;2.60;;;;;;;;;;5015283;28;20708;-78
2023/07/19 08:30:19;;;;;;;3.15;2.78;;;;;;;;;;5040470;28;20241;-80
2023/07/19 08:32:51;;;;;;;2.55;2.35;;;;;;;;;;5025750;28;20207;-79
2023/07/19 08:35:17;;;;;;;3.92;2.85;;;;;;;;;;5014340;28;20215;-79
2023/07/19 08:37:45;;;;;;;4.03;2.38;;;;;;;;;;5014727;28;20231;-80
2023/07/19 08:40:12;;;;;;;2.85;2.28;;;;;;;;;;5024924;28;20234;-80
2023/07/19 08:42:40;;;;;;;2.53;2.30;;;;;;;;;;5044723;28;20239;-79
2023/07/19 08:45:07;;;;;;;2.50;2.30;;;;;;;;;;5043187;28;20216;-79
2023/07/19 08:47:32;;;;;;;3.67;2.28;;;;;;;;;;5041923;28;20222;-78
2023/07/19 08:49:58;;;;;;;3.30;1.98;;;;;;;;;;5025887;28;20223;-79
2023/07/19 08:52:26;;;;;;;6.95;1.98;;;;;;;;;;5019238;28;21273;-77
2023/07/19 08:54:54;;;;;;;2.90;1.83;;;;;;;;;;5033481;28;20207;-77
2023/07/19 08:57:22;;;;;;;3.00;2.10;;;;;;;;;;4995672;28;20230;-78
2023/07/19 08:59:48;;;;;;;4.47;2.03;;;;;;;;;;5036692;28;20688;-79
2023/07/19 09:02:13;;;;;;;3.42;2.00;;;;;;;;;;5042660;28;20365;-79
2023/07/19 09:04:41;;;;;;;3.40;1.85;;;;;;;;;;5019181;28;20227;-78
2023/07/19 09:07:07;;;;;;;3.38;1.70;;;;;;;;;;5027445;28;20612;-80
2023/07/19 09:09:33;;;;;;;5.50;1.90;;;;;;;;;;5008573;28;20227;-79
2023/07/19 09:12:01;;;;;;;2.60;2.20;;;;;;;;;;5022273;28;20215;-81
2023/07/19 09:14:35;;;;;;;2.33;1.90;;;;;;;;;;5005413;28;20231;-79
2023/07/19 09:17:01;;;;;;;2.65;2.03;;;;;;;;;;5028563;28;20224;-79
2023/07/19 09:19:27;;;;;;;2.42;2.00;;;;;;;;;;5025645;28;20851;-79
2023/07/19 09:21:52;;;;;;;3.28;2.30;;;;;;;;;;5008640;28;20286;-81
2023/07/19 09:24:20;;;;;;;3.20;2.08;;;;;;;;;;5030063;28;20218;-79
2023/07/19 09:26:58;;;;;;;3.97;2.10;;;;;;;;;;5042715;28;20223;-80
2023/07/19 09:29:27;;;;;;;4.47;2.40;;;;;;;;;;5025575;28;20226;-78
2023/07/19 09:31:54;;;;;;;3.58;2.20;;;;;;;;;;4992305;28;20307;-78
2023/07/19 09:34:36;;;;;;;3.20;2.00;;;;;;;;;;5029582;28;20235;-78
2023/07/19 09:37:01;;;;;;;4.57;2.28;;;;;;;;;;5012709;28;20238;-78
2023/07/19 09:39:28;;;;;;;3.38;2.45;;;;;;;;;;5015244;28;20216;-78
2023/07/19 09:41:54;;;;;;;6.07;2.13;;;;;;;;;;5051990;28;20597;-79
2023/07/19 09:44:19;;;;;;;2.47;2.13;;;;;;;;;;5047174;28;20232;-79
2023/07/19 09:46:45;;;;;;;3.47;2.22;;;;;;;;;;5019021;28;20215;-81
2023/07/19 09:49:11;;;;;;;2.63;2.10;;;;;;;;;;5017337;28;20231;-81
2023/07/19 09:51:41;;;;;;;2.45;1.92;;;;;;;;;;5035293;28;20212;-80
2023/07/19 09:54:10;;;;;;;3.35;2.33;;;;;;;;;;5032639;28;20226;-81
2023/07/19 09:56:36;;;;;;;4.53;2.05;;;;;;;;;;5031748;28;20569;-80
2023/07/19 09:59:04;;;;;;;3.85;1.95;;;;;;;;;;5001996;28;20226;-81
2023/07/19 10:01:32;;;;;;;2.35;2.03;;;;;;;;;;5025445;28;20305;-79
2023/07/19 10:03:58;;;;;;;2.80;1.98;;;;;;;;;;4999038;28;20702;-79
2023/07/19 10:06:30;;;;;;;4.32;1.80;;;;;;;;;;4987202;28;20250;-80
2023/07/19 10:09:38;;;;;;;2.40;2.10;;;;;;;;;;5030846;28;20683;-79
2023/07/19 10:12:22;;;;;;;3.50;2.20;;;;;;;;;;5024960;28;20231;-78
2023/07/19 10:15:11;;;;;;;5.90;1.88;;;;;;;;;;5029612;28;20229;-81
2023/07/19 10:17:58;;;;;;;5.07;2.10;;;;;;;;;;5028019;28;20250;-80
2023/07/19 10:20:30;;;;;;;2.92;2.03;;;;;;;;;;5016048;28;20227;-83
2023/07/19 10:22:59;;;;;;;3.60;2.38;;;;;;;;;;5008998;28;20742;-80
2023/07/19 10:25:31;;;;;;;4.95;2.15;;;;;;;;;;5020258;28;20211;-79
2023/07/19 10:28:04;;;;;;;2.80;1.88;;;;;;;;;;5037191;28;20250;-81
2023/07/19 10:30:42;;;;;;;5.38;2.55;;;;;;;;;;5015138;28;20228;-82
2023/07/19 10:33:08;;;;;;;4.18;1.75;;;;;;;;;;5032477;28;20239;-81
2023/07/19 10:35:34;;;;;;;4.15;1.85;;;;;;;;;;5031803;28;20589;-80
2023/07/19 10:37:59;;;;;;;3.50;2.13;;;;;;;;;;5033437;28;20243;-80
2023/07/19 10:40:25;;;;;;;4.13;2.10;;;;;;;;;;5018581;28;20227;-80
2023/07/19 10:42:50;;;;;;;4.22;2.20;;;;;;;;;;5013516;28;20659;-81
2023/07/19 10:45:21;;;;;;;3.20;2.20;;;;;;;;;;5023255;28;20689;-80
2023/07/19 10:47:46;;;;;;;4.47;2.20;;;;;;;;;;5027396;28;20219;-81
2023/07/19 10:50:12;;;;;;;3.28;2.05;;;;;;;;;;5010344;28;20223;-80
2023/07/19 10:52:37;;;;;;;5.50;2.40;;;;;;;;;;5015967;28;20220;-78
2023/07/19 10:55:05;;;;;;;2.83;2.00;;;;;;;;;;5031642;28;20306;-81
2023/07/19 10:57:31;;;;;;;2.83;2.22;;;;;;;;;;5021790;28;20231;-80
2023/07/19 10:59:56;;;;;;;4.50;2.25;;;;;;;;;;5015098;28;20697;-80
2023/07/19 11:02:22;;;;;;;3.92;2.70;;;;;;;;;;5021930;28;20228;-80
2023/07/19 11:04:48;;;;;;;3.72;2.25;;;;;;;;;;5017458;28;20595;-81
2023/07/19 11:07:14;;;;;;;5.57;2.60;;;;;;;;;;4998763;28;20578;-83
2023/07/19 11:09:42;;;;;;;2.65;2.13;;;;;;;;;;4991076;28;20245;-81
2023/07/19 11:12:13;;;;;;;5.18;2.58;;;;;;;;;;5015495;28;20257;-82
2023/07/19 11:14:42;;;;;;;4.50;2.35;;;;;;;;;;5015332;28;20960;-83
2023/07/19 11:17:08;;;;;;;3.63;2.20;;;;;;;;;;5005016;28;20212;-82
2023/07/19 11:19:44;;;;;;;3.47;2.28;;;;;;;;;;5012299;28;20676;-82
2023/07/19 11:22:10;;;;;;;4.93;2.10;;;;;;;;;;5033778;28;20311;-82
2023/07/19 11:24:40;;;;;;;3.42;2.60;;;;;;;;;;5014812;28;20220;-85
2023/07/19 11:27:12;;;;;;;3.00;2.15;;;;;;;;;;5013243;28;20302;-81
2023/07/19 11:29:37;;;;;;;4.38;2.40;;;;;;;;;;5019309;28;20230;-82
2023/07/19 11:32:20;;;;;;;5.13;2.28;;;;;;;;;;5002958;28;20223;-80
2023/07/19 11:34:56;;;;;;;4.00;2.28;;;;;;;;;;5027090;28;20227;-81
2023/07/19 11:37:32;;;;;;;3.88;2.20;;;;;;;;;;5021305;28;20332;-80
2023/07/19 11:39:58;;;;;;;5.40;2.45;;;;;;;;;;5027379;28;20234;-81
2023/07/19 11:42:49;;;;;;;4.47;2.30;;;;;;;;;;5014252;28;20853;-80
2023/07/19 11:45:21;;;;;;;3.80;2.58;;;;;;;;;;5024069;28;20219;-83
2023/07/19 11:47:51;;;;;;;3.25;2.53;;;;;;;;;;5010009;28;20216;-81
2023/07/19 11:50:17;;;;;;;4.68;2.47;;;;;;;;;;5012125;28;20969;-80
2023/07/19 11:53:01;;;;;;;2.85;2.00;;;;;;;;;;5008840;28;20218;-82
2023/07/19 11:55:29;;;;;;;4.97;2.58;;;;;;;;;;5013828;28;20320;-79
2023/07/19 11:58:02;;;;;;;2.55;2.33;;;;;;;;;;5013584;28;20227;-82
2023/07/19 12:00:31;;;;;;;2.65;2.45;;;;;;;;;;5025278;28;20254;-80
2023/07/19 12:02:57;;;;;;;5.50;2.55;;;;;;;;;;5032570;28;20281;-81
2023/07/19 12:05:23;;;;;;;5.50;2.85;;;;;;;;;;5037620;28;20258;-78
2023/07/19 12:07:50;;;;;;;3.13;2.35;;;;;;;;;;4998791;28;20231;-80
2023/07/19 12:10:17;;;;;;;4.00;2.25;;;;;;;;;;5010767;28;20233;-80
2023/07/19 12:12:44;;;;;;;3.38;2.72;;;;;;;;;;4993639;28;20211;-81
2023/07/19 12:15:13;;;;;;;3.45;2.70;;;;;;;;;;5024043;28;20224;-82
2023/07/19 12:17:39;;;;;;;3.95;3.00;;;;;;;;;;4999426;28;20247;-81
2023/07/19 12:20:11;;;;;;;3.78;2.97;;;;;;;;;;5028166;28;20251;-80
2023/07/19 12:22:40;;;;;;;5.00;2.63;;;;;;;;;;4989200;28;20612;-79
2023/07/19 12:25:09;;;;;;;4.70;2.60;;;;;;;;;;5052699;28;20708;-78
2023/07/19 12:27:35;;;;;;;3.28;2.97;;;;;;;;;;5052775;28;20226;-81
2023/07/19 12:30:00;;;;;;;3.95;2.90;;;;;;;;;;5032599;28;20227;-82
2023/07/19 12:32:29;;;;;;;3.47;2.60;;;;;;;;;;5014348;28;20215;-82
2023/07/19 12:34:55;;;;;;;4.65;2.33;;;;;;;;;;4991690;28;20234;-79
2023/07/19 12:37:22;;;;;;;3.47;2.33;;;;;;;;;;5049573;28;20245;-79
2023/07/19 12:39:50;;;;;;;5.88;2.75;;;;;;;;;;5024299;28;20254;-80
2023/07/19 12:42:15;;;;;;;2.67;2.30;;;;;;;;;;5049387;28;20255;-81
2023/07/19 12:44:41;;;;;;;3.25;2.40;;;;;;;;;;5032775;28;20362;-79
2023/07/19 12:47:07;;;;;;;3.25;2.15;;;;;;;;;;5012692;28;20309;-80
2023/07/19 12:49:33;;;;;;;2.67;2.40;;;;;;;;;;5033141;28;20273;-82
2023/07/19 12:52:00;;;;;;;6.75;2.20;;;;;;;;;;5017507;28;20227;-79
2023/07/19 12:54:29;;;;;;;5.63;3.17;;;;;;;;;;5025424;28;20357;-81
2023/07/19 12:56:54;;;;;;;3.08;2.78;;;;;;;;;;4992032;28;20313;-82
2023/07/19 12:59:23;;;;;;;4.07;2.78;;;;;;;;;;5019252;28;20323;-81
2023/07/19 13:01:51;;;;;;;5.47;2.72;;;;;;;;;;5028322;28;20222;-80
2023/07/19 13:04:21;;;;;;;4.07;3.13;;;;;;;;;;4980406;28;20223;-82
2023/07/19 13:06:46;;;;;;;4.07;3.17;;;;;;;;;;5019539;28;20548;-81
2023/07/19 13:09:12;;;;;;;14.18;3.38;;;;;;;;;;5010229;28;20710;-79
2023/07/19 13:11:40;;;;;;;6.50;5.10;;;;;;;;;;5041663;28;20215;-77
2023/07/19 13:14:06;;;;;;;11.38;5.75;;;;;;;;;;5042682;28;20228;-79
2023/07/19 13:16:31;;;;;;;8.40;6.38;;;;;;;;;;5027376;28;20225;-77
2023/07/19 13:18:57;;;;;;;7.03;6.28;;;;;;;;;;5016687;28;20219;-79
2023/07/19 13:21:23;;;;;;;7.68;6.97;;;;;;;;;;5033416;28;20272;-78
2023/07/19 13:23:51;;;;;;;8.15;7.38;;;;;;;;;;4996113;28;20231;-79
2023/07/19 13:26:16;;;;;;;10.85;9.23;;;;;;;;;;5035296;28;20284;-79
2023/07/19 13:28:45;;;;;;;14.02;10.90;;;;;;;;;;5031689;28;20220;-79
2023/07/19 13:31:14;;;;;;;12.43;11.15;;;;;;;;;;5046616;28;20231;-80
2023/07/19 13:33:40;;;;;;;12.75;11.57;;;;;;;;;;5037564;28;20308;-78
2023/07/19 13:36:05;;;;;;;13.27;12.10;;;;;;;;;;5027469;28;20228;-79
2023/07/19 13:38:36;;;;;;;14.13;12.82;;;;;;;;;;5039086;28;20271;-78
2023/07/19 13:41:10;;;;;;;13.32;12.13;;;;;;;;;;5049310;28;20250;-77
2023/07/19 13:43:36;;;;;;;11.40;10.35;;;;;;;;;;5025984;28;20927;-78
2023/07/19 13:46:01;;;;;;;12.02;9.43;;;;;;;;;;5033039;28;20207;-79
2023/07/19 13:48:32;;;;;;;11.35;10.25;;;;;;;;;;5017229;28;20235;-79
2023/07/19 13:50:57;;;;;;;10.00;9.05;;;;;;;;;;5009842;28;20223;-79
2023/07/19 13:53:25;;;;;;;11.80;10.70;;;;;;;;;;5014451;28;20606;-78
2023/07/19 13:55:51;;;;;;;12.48;11.35;;;;;;;;;;4997615;28;20227;-77
2023/07/19 13:58:23;;;;;;;10.82;9.82;;;;;;;;;;5037187;28;20728;-78
2023/07/19 14:00:52;;;;;;;13.98;10.45;;;;;;;;;;5043077;28;20228;-78
2023/07/19 14:03:18;;;;;;;12.60;9.20;;;;;;;;;;5011144;28;20239;-79
2023/07/19 14:05:45;;;;;;;9.02;8.25;;;;;;;;;;5028706;28;20233;-79
2023/07/19 14:08:10;;;;;;;7.20;6.38;;;;;;;;;;5012047;28;20689;-79
2023/07/19 14:10:36;;;;;;;8.95;6.75;;;;;;;;;;5005949;28;20235;-78
2023/07/19 14:13:01;;;;;;;7.32;4.65;;;;;;;;;;5021612;28;20212;-79
2023/07/19 14:15:27;;;;;;;5.15;4.43;;;;;;;;;;5023449;28;20286;-79
2023/07/19 14:17:52;;;;;;;7.28;4.60;;;;;;;;;;5030112;28;20879;-79
2023/07/19 14:20:18;;;;;;;6.80;5.43;;;;;;;;;;5030893;28;20227;-80
2023/07/19 14:22:48;;;;;;;6.82;4.80;;;;;;;;;;5025430;28;20228;-78
2023/07/19 14:25:17;;;;;;;5.22;4.68;;;;;;;;;;5030506;28;20238;-80
2023/07/19 14:27:42;;;;;;;5.50;4.40;;;;;;;;;;5017508;28;20351;-78
2023/07/19 14:30:09;;;;;;;5.32;4.68;;;;;;;;;;5025849;28;20216;-79
2023/07/19 14:32:36;;;;;;;5.82;4.90;;;;;;;;;;5027226;28;20391;-80
2023/07/19 14:35:01;;;;;;;7.32;4.53;;;;;;;;;;5025652;28;20224;-78
2023/07/19 14:37:31;;;;;;;5.13;4.63;;;;;;;;;;5027076;28;20939;-79
2023/07/19 14:39:57;;;;;;;5.78;3.75;;;;;;;;;;5034049;28;20219;-80
2023/07/19 14:42:23;;;;;;;8.15;3.88;;;;;;;;;;5035175;28;20760;-81
2023/07/19 14:44:51;;;;;;;3.85;3.55;;;;;;;;;;5029826;28;20240;-82
2023/07/19 14:47:19;;;;;;;3.67;3.30;;;;;;;;;;5029368;28;20220;-81
2023/07/19 14:49:44;;;;;;;3.88;3.20;;;;;;;;;;5019063;28;20318;-80